Time;durP1;ratioP1;P1;durP2;ratioP2;P2;SDS_P1;SDS_P2;PMS_P1;PMS_P2;Temp;Humidity;BMP_temperature;BMP_pressure;BME280_temperature;BME280_humidity;BME280_pressure;Samples;Min_cycle;Max_cycle;Signal;HPM_P1;HPM_P2
2024/03/18 00:00:14;;;;;;;51.75;35.67;;;11.00;99.90;;;;;;6287069;22;39594;-80
2024/03/18 00:02:42;;;;;;;54.70;37.45;;;11.00;99.90;;;;;;6312964;22;38169;-81
2024/03/18 00:05:12;;;;;;;53.83;34.13;;;11.00;99.90;;;;;;6282468;22;38459;-79
2024/03/18 00:07:39;;;;;;;51.67;35.10;;;10.90;99.90;;;;;;6286059;22;39559;-78
2024/03/18 00:10:09;;;;;;;51.63;35.23;;;10.90;99.90;;;;;;6280636;22;37550;-79
2024/03/18 00:12:43;;;;;;;60.55;38.40;;;10.80;99.90;;;;;;6283541;22;38727;-80
2024/03/18 00:15:13;;;;;;;48.85;35.13;;;10.80;99.90;;;;;;6286859;22;36651;-80
2024/03/18 00:17:40;;;;;;;51.65;35.13;;;10.70;99.90;;;;;;6287054;22;38230;-78
2024/03/18 00:20:10;;;;;;;53.95;34.70;;;10.70;99.90;;;;;;6284289;22;38840;-79
2024/03/18 00:22:36;;;;;;;41.20;31.42;;;10.60;99.90;;;;;;6284226;22;37516;-80
2024/03/18 00:25:03;;;;;;;47.87;33.47;;;10.60;99.90;;;;;;6281887;22;38561;-79
2024/03/18 00:27:30;;;;;;;51.60;34.25;;;10.50;99.90;;;;;;6306655;22;47881;-79
2024/03/18 00:29:56;;;;;;;58.67;36.30;;;10.50;99.90;;;;;;6308020;22;39155;-79
2024/03/18 00:32:23;;;;;;;45.15;31.98;;;10.50;99.90;;;;;;6279580;22;38907;-80
2024/03/18 00:34:52;;;;;;;57.08;34.00;;;10.40;99.90;;;;;;6280666;22;36408;-79
2024/03/18 00:37:19;;;;;;;45.45;31.73;;;10.40;99.90;;;;;;6279434;22;38214;-80
2024/03/18 00:39:45;;;;;;;44.07;29.27;;;10.40;99.90;;;;;;6310538;22;38869;-80
2024/03/18 00:42:11;;;;;;;43.28;29.67;;;10.50;99.90;;;;;;6279259;22;39270;-80
2024/03/18 00:44:37;;;;;;;42.92;30.55;;;10.50;99.90;;;;;;6306954;22;38915;-80
2024/03/18 00:47:04;;;;;;;47.38;29.02;;;10.50;99.90;;;;;;6307470;22;39927;-79
2024/03/18 00:49:30;;;;;;;50.45;31.88;;;10.50;99.90;;;;;;6310473;22;38454;-79
2024/03/18 00:51:56;;;;;;;44.50;28.03;;;10.60;99.90;;;;;;6281668;22;37602;-79
2024/03/18 00:54:23;;;;;;;45.23;27.87;;;10.60;99.90;;;;;;6284794;22;37830;-79
2024/03/18 00:56:50;;;;;;;48.47;29.13;;;10.60;99.90;;;;;;6281447;22;39944;-79
2024/03/18 00:59:18;;;;;;;43.97;28.20;;;10.60;99.90;;;;;;6313327;22;39314;-79
2024/03/18 01:01:44;;;;;;;43.17;28.58;;;10.60;99.90;;;;;;6314908;22;38445;-80
2024/03/18 01:04:10;;;;;;;48.03;30.30;;;10.70;99.90;;;;;;6283750;22;38491;-79
2024/03/18 01:06:36;;;;;;;44.65;29.92;;;10.70;99.90;;;;;;6283319;22;39390;-79
2024/03/18 01:09:06;;;;;;;47.15;31.25;;;10.70;99.90;;;;;;6277192;22;37795;-78
2024/03/18 01:11:32;;;;;;;44.78;30.55;;;10.70;99.90;;;;;;6281297;22;40438;-79
2024/03/18 01:13:58;;;;;;;45.90;32.17;;;10.70;99.90;;;;;;6312691;22;36947;-79
2024/03/18 01:16:24;;;;;;;49.30;32.78;;;10.70;99.90;;;;;;6280062;22;39742;-79
2024/03/18 01:18:51;;;;;;;41.30;30.13;;;10.70;99.90;;;;;;6281735;22;38458;-80
2024/03/18 01:21:18;;;;;;;48.30;32.63;;;10.80;99.90;;;;;;6278184;22;38938;-79
2024/03/18 01:23:47;;;;;;;64.53;37.35;;;10.80;99.90;;;;;;6309085;22;37374;-79
2024/03/18 01:26:14;;;;;;;50.65;32.42;;;10.80;99.90;;;;;;6277802;22;39122;-80
2024/03/18 01:28:44;;;;;;;45.78;31.70;;;10.70;99.90;;;;;;6276496;22;39667;-79
2024/03/18 01:31:10;;;;;;;55.28;32.97;;;10.80;99.90;;;;;;6305320;22;39072;-80
2024/03/18 01:33:36;;;;;;;69.35;37.67;;;10.80;99.90;;;;;;6309609;22;38352;-79
2024/03/18 01:36:03;;;;;;;64.18;36.50;;;10.80;99.90;;;;;;6279833;22;38968;-80
2024/03/18 01:38:29;;;;;;;50.08;33.60;;;10.80;99.90;;;;;;6279134;22;40881;-79
2024/03/18 01:40:56;;;;;;;45.47;31.58;;;10.80;99.90;;;;;;6306693;22;38766;-79
2024/03/18 01:43:23;;;;;;;52.75;35.55;;;10.80;99.90;;;;;;6307477;22;38497;-78
2024/03/18 01:45:49;;;;;;;54.28;35.75;;;10.80;99.90;;;;;;6282323;22;38944;-79
2024/03/18 01:48:16;;;;;;;54.50;33.78;;;10.80;99.90;;;;;;6278846;22;40102;-79
2024/03/18 01:50:43;;;;;;;51.55;33.05;;;10.80;99.90;;;;;;6308888;22;38821;-79
2024/03/18 01:53:13;;;;;;;48.80;33.87;;;10.80;99.90;;;;;;6307818;22;37228;-79
2024/03/18 01:55:41;;;;;;;53.28;34.60;;;10.80;99.90;;;;;;6280856;22;39297;-79
2024/03/18 01:58:08;;;;;;;50.00;34.38;;;10.80;99.90;;;;;;6279116;22;39904;-80
2024/03/18 02:03:10;;;;;;;48.60;31.92;;;10.80;99.90;;;;;;6260827;22;19919;-77
2024/03/18 02:05:38;;;;;;;52.35;32.40;;;10.80;99.90;;;;;;6277218;22;39620;-76
2024/03/18 02:08:05;;;;;;;47.83;31.55;;;10.80;99.90;;;;;;6275551;22;40542;-76
2024/03/18 02:10:31;;;;;;;42.85;29.42;;;10.80;99.90;;;;;;6275250;22;40146;-76
2024/03/18 02:13:00;;;;;;;39.95;29.60;;;10.80;99.90;;;;;;6304370;22;37163;-76
2024/03/18 02:15:26;;;;;;;45.30;29.95;;;10.80;99.90;;;;;;6273276;22;39481;-76
2024/03/18 02:17:53;;;;;;;39.67;28.00;;;10.80;99.90;;;;;;6302154;22;39176;-76
2024/03/18 02:20:21;;;;;;;43.72;30.30;;;10.80;99.90;;;;;;6303776;22;38334;-77
2024/03/18 02:22:47;;;;;;;37.03;26.25;;;10.80;99.90;;;;;;6306679;22;37787;-76
2024/03/18 02:25:14;;;;;;;48.95;29.52;;;10.80;99.90;;;;;;6301057;22;39075;-76
2024/03/18 02:27:41;;;;;;;40.65;26.50;;;10.80;99.90;;;;;;6304321;22;39958;-76
2024/03/18 02:30:08;;;;;;;40.72;26.38;;;10.80;99.90;;;;;;6301217;22;39676;-76
2024/03/18 02:32:36;;;;;;;36.85;24.27;;;10.80;99.90;;;;;;6302786;22;37728;-76
2024/03/18 02:35:05;;;;;;;35.50;23.00;;;10.80;99.90;;;;;;6304862;22;39029;-76
2024/03/18 02:37:32;;;;;;;31.38;21.60;;;10.80;99.90;;;;;;6275599;22;39120;-76
2024/03/18 02:40:03;;;;;;;36.92;23.42;;;10.80;99.90;;;;;;6277447;22;40313;-76
2024/03/18 02:42:29;;;;;;;31.10;21.25;;;10.80;99.90;;;;;;6275084;22;36796;-76
2024/03/18 02:44:55;;;;;;;32.13;22.10;;;10.80;99.90;;;;;;6277851;22;39236;-77
2024/03/18 02:47:21;;;;;;;31.10;20.73;;;10.80;99.90;;;;;;6274751;22;39096;-76
2024/03/18 02:49:48;;;;;;;38.42;23.70;;;10.80;99.90;;;;;;6276373;22;39339;-77
2024/03/18 02:52:14;;;;;;;41.15;23.92;;;10.80;99.90;;;;;;6274285;22;36125;-76
2024/03/18 02:54:40;;;;;;;39.25;23.63;;;10.80;99.90;;;;;;6304812;22;38326;-76
2024/03/18 02:57:06;;;;;;;37.10;24.50;;;10.80;99.90;;;;;;6273055;22;38947;-76
2024/03/18 02:59:32;;;;;;;39.58;25.42;;;10.80;99.90;;;;;;6305364;22;38420;-77
2024/03/18 03:01:58;;;;;;;34.75;23.10;;;10.90;99.90;;;;;;6275942;22;38790;-76
2024/03/18 03:04:25;;;;;;;41.20;25.85;;;10.90;99.90;;;;;;6277583;22;40775;-76
2024/03/18 03:06:51;;;;;;;35.83;23.77;;;10.80;99.90;;;;;;6277690;22;39240;-77
2024/03/18 03:09:17;;;;;;;45.15;27.23;;;10.80;99.90;;;;;;6278383;22;38799;-76
2024/03/18 03:11:43;;;;;;;40.55;25.95;;;10.80;99.90;;;;;;6277625;22;38212;-76
2024/03/18 03:14:10;;;;;;;37.28;25.23;;;10.90;99.90;;;;;;6278222;22;40052;-77
2024/03/18 03:16:36;;;;;;;33.30;24.98;;;10.90;99.90;;;;;;6306336;22;38725;-78
2024/03/18 03:19:02;;;;;;;33.70;24.23;;;10.90;99.90;;;;;;6283000;22;39142;-78
2024/03/18 03:21:28;;;;;;;33.72;24.52;;;10.80;99.90;;;;;;6314260;22;37784;-77
2024/03/18 03:23:55;;;;;;;34.10;24.95;;;10.80;99.90;;;;;;6286326;22;39204;-77
2024/03/18 03:26:21;;;;;;;43.97;25.65;;;10.80;99.90;;;;;;6312274;22;39958;-77
2024/03/18 03:28:47;;;;;;;41.05;25.05;;;10.80;99.90;;;;;;6285155;22;39340;-75
2024/03/18 03:31:14;;;;;;;37.83;25.02;;;10.80;99.90;;;;;;6283559;22;37955;-77
2024/03/18 03:33:40;;;;;;;34.72;25.08;;;10.80;99.90;;;;;;6280495;22;39594;-76
2024/03/18 03:36:07;;;;;;;41.55;26.23;;;10.80;99.90;;;;;;6308133;22;39253;-76
2024/03/18 03:38:33;;;;;;;41.33;27.73;;;10.80;99.90;;;;;;6307376;22;38259;-76
2024/03/18 03:41:01;;;;;;;44.90;26.00;;;10.80;99.90;;;;;;6277364;22;37912;-77
2024/03/18 03:43:27;;;;;;;43.95;29.40;;;10.80;99.90;;;;;;6274476;22;46971;-76
2024/03/18 03:45:56;;;;;;;37.92;26.15;;;10.80;99.90;;;;;;6276991;22;39446;-76
2024/03/18 03:48:23;;;;;;;37.67;26.48;;;10.80;99.90;;;;;;6274284;22;37653;-77
2024/03/18 03:50:50;;;;;;;49.90;27.35;;;10.80;99.90;;;;;;6276019;22;36793;-78
2024/03/18 03:53:17;;;;;;;32.13;24.00;;;10.80;99.90;;;;;;6277573;22;40129;-78
2024/03/18 03:55:44;;;;;;;35.03;23.42;;;10.80;99.90;;;;;;6276483;22;38983;-77
2024/03/18 03:58:10;;;;;;;33.88;25.20;;;10.80;99.90;;;;;;6302693;22;38294;-77
2024/03/18 04:00:41;;;;;;;36.25;24.42;;;10.80;99.90;;;;;;6276820;22;37889;-78
2024/03/18 04:03:07;;;;;;;42.53;26.88;;;10.80;99.90;;;;;;6276818;22;38967;-79
2024/03/18 04:05:34;;;;;;;50.95;29.35;;;10.80;99.90;;;;;;6305638;22;40105;-78
2024/03/18 04:08:00;;;;;;;40.20;24.60;;;10.80;99.90;;;;;;6311100;22;38531;-78
2024/03/18 04:10:26;;;;;;;44.08;28.45;;;10.80;99.90;;;;;;6277322;22;38050;-78
2024/03/18 04:12:52;;;;;;;34.60;22.58;;;10.80;99.90;;;;;;6278578;22;39205;-78
2024/03/18 04:15:19;;;;;;;48.65;26.65;;;10.90;99.90;;;;;;6277495;22;39506;-77
2024/03/18 04:17:45;;;;;;;37.28;25.58;;;10.80;99.90;;;;;;6276983;22;39067;-78
2024/03/18 04:20:21;;;;;;;38.65;25.40;;;10.80;99.90;;;;;;6278475;22;38468;-78
2024/03/18 04:22:51;;;;;;;31.88;22.75;;;10.80;99.90;;;;;;6293359;22;39178;-78
2024/03/18 04:25:23;;;;;;;34.63;21.85;;;10.80;99.90;;;;;;6283363;22;37771;-78
2024/03/18 04:27:49;;;;;;;37.67;23.25;;;10.80;99.90;;;;;;6279362;22;37291;-78
2024/03/18 04:30:17;;;;;;;32.33;21.70;;;10.80;99.90;;;;;;6302005;22;37793;-78
2024/03/18 04:32:44;;;;;;;38.15;23.95;;;10.80;99.90;;;;;;6277415;22;39717;-78
2024/03/18 04:35:11;;;;;;;36.08;22.95;;;10.80;99.90;;;;;;6309826;22;38914;-79
2024/03/18 04:37:47;;;;;;;36.05;20.65;;;10.80;99.90;;;;;;6278728;22;37851;-78
2024/03/18 04:40:19;;;;;;;29.05;19.98;;;10.80;99.90;;;;;;6276575;22;38251;-78
2024/03/18 04:42:46;;;;;;;32.90;20.27;;;10.80;99.90;;;;;;6278952;22;39823;-78
2024/03/18 04:45:15;;;;;;;33.53;19.42;;;10.80;99.90;;;;;;6302132;22;39662;-78
2024/03/18 04:47:44;;;;;;;30.33;19.52;;;10.80;99.90;;;;;;6277472;22;38805;-79
2024/03/18 04:50:15;;;;;;;32.53;18.17;;;10.80;99.90;;;;;;6305724;22;38365;-78
2024/03/18 04:52:42;;;;;;;32.03;17.70;;;10.80;99.90;;;;;;6281767;22;39464;-79
2024/03/18 04:55:09;;;;;;;34.83;18.85;;;10.80;99.90;;;;;;6279814;22;38788;-78
2024/03/18 04:57:36;;;;;;;30.25;17.52;;;10.80;99.90;;;;;;6307592;22;39000;-78
2024/03/18 05:00:09;;;;;;;31.85;16.02;;;10.80;99.90;;;;;;6280040;22;38819;-78
2024/03/18 05:02:45;;;;;;;22.05;16.23;;;10.80;99.90;;;;;;6277548;22;39190;-78
2024/03/18 05:05:13;;;;;;;27.25;16.27;;;10.80;99.90;;;;;;6278529;22;38163;-78
2024/03/18 05:07:42;;;;;;;32.03;16.08;;;10.70;99.90;;;;;;6277921;22;38913;-78
2024/03/18 05:10:10;;;;;;;26.98;14.40;;;10.80;99.90;;;;;;6304560;22;37298;-78
2024/03/18 05:12:38;;;;;;;27.70;15.73;;;10.80;99.90;;;;;;6277129;22;39124;-79
2024/03/18 05:15:06;;;;;;;27.35;15.02;;;10.80;99.90;;;;;;6278663;22;38063;-78
2024/03/18 05:17:32;;;;;;;31.77;14.57;;;10.70;99.90;;;;;;6279230;22;47183;-78
2024/03/18 05:19:58;;;;;;;29.52;15.15;;;10.70;99.90;;;;;;6278243;22;38119;-78
2024/03/18 05:22:24;;;;;;;35.75;16.33;;;10.80;99.90;;;;;;6276423;22;38757;-79
2024/03/18 05:24:51;;;;;;;25.95;15.70;;;10.70;99.90;;;;;;6275946;22;39186;-78
2024/03/18 05:27:19;;;;;;;28.23;15.77;;;10.80;99.90;;;;;;6277215;22;37401;-78
2024/03/18 05:29:46;;;;;;;29.45;15.80;;;10.80;99.90;;;;;;6275637;22;36481;-78
2024/03/18 05:32:14;;;;;;;36.67;18.02;;;10.70;99.90;;;;;;6276801;22;37737;-77
2024/03/18 05:34:43;;;;;;;34.13;17.60;;;10.80;99.90;;;;;;6278401;22;37683;-78
2024/03/18 05:37:09;;;;;;;31.83;16.42;;;10.80;99.90;;;;;;6301573;22;38467;-78
2024/03/18 05:39:39;;;;;;;46.20;20.05;;;10.80;99.90;;;;;;6277402;22;36453;-78
2024/03/18 05:42:07;;;;;;;37.97;16.83;;;10.80;99.90;;;;;;6271810;22;38747;-78
2024/03/18 05:44:33;;;;;;;30.58;17.52;;;10.80;99.90;;;;;;6304642;22;39022;-78
2024/03/18 05:46:59;;;;;;;42.40;19.45;;;10.80;99.90;;;;;;6304167;22;38501;-78
2024/03/18 05:49:27;;;;;;;35.67;18.35;;;10.80;99.90;;;;;;6305528;22;37875;-78
2024/03/18 05:51:54;;;;;;;36.53;18.30;;;10.80;99.90;;;;;;6279017;22;37748;-77
2024/03/18 05:54:20;;;;;;;38.30;18.58;;;10.80;99.90;;;;;;6275847;22;38936;-77
2024/03/18 05:56:47;;;;;;;40.28;16.55;;;10.80;99.90;;;;;;6307453;22;38996;-77
2024/03/18 05:59:14;;;;;;;29.13;15.38;;;10.80;99.90;;;;;;6278821;22;36253;-77
2024/03/18 06:01:42;;;;;;;39.65;17.25;;;10.80;99.90;;;;;;6308873;22;38966;-77
2024/03/18 06:04:10;;;;;;;35.63;16.83;;;10.80;99.90;;;;;;6283282;22;39101;-77
2024/03/18 06:06:36;;;;;;;44.92;16.55;;;10.80;99.90;;;;;;6310606;22;38908;-77
2024/03/18 06:09:03;;;;;;;30.63;15.63;;;10.80;99.90;;;;;;6276642;22;38221;-77
2024/03/18 06:11:29;;;;;;;34.42;16.88;;;10.80;99.90;;;;;;6280818;22;37694;-77
2024/03/18 06:13:55;;;;;;;37.00;16.05;;;10.80;99.90;;;;;;6309144;22;39206;-78
2024/03/18 06:16:21;;;;;;;36.63;14.88;;;10.80;99.90;;;;;;6305531;22;39747;-77
2024/03/18 06:18:49;;;;;;;35.38;16.35;;;10.80;99.90;;;;;;6305973;22;37967;-77
2024/03/18 06:21:19;;;;;;;37.22;13.70;;;10.80;99.90;;;;;;6274942;22;38002;-78
2024/03/18 06:23:59;;;;;;;33.97;13.90;;;10.80;99.90;;;;;;6275312;22;39539;-77
2024/03/18 06:26:25;;;;;;;41.53;15.50;;;10.70;99.90;;;;;;6303250;22;39016;-77
2024/03/18 06:28:52;;;;;;;33.90;14.20;;;10.80;99.90;;;;;;6307558;22;38445;-78
2024/03/18 06:31:19;;;;;;;32.13;14.05;;;10.80;99.90;;;;;;6305194;22;39546;-78
2024/03/18 06:33:47;;;;;;;32.88;14.35;;;10.80;99.90;;;;;;6278070;22;37644;-77
2024/03/18 06:36:13;;;;;;;29.55;13.77;;;10.80;99.90;;;;;;6275820;22;37627;-77
2024/03/18 06:38:41;;;;;;;28.75;13.52;;;10.80;99.90;;;;;;6304945;22;38230;-77
2024/03/18 06:41:09;;;;;;;30.83;12.50;;;10.80;99.90;;;;;;6307436;22;38646;-77
2024/03/18 06:43:38;;;;;;;35.45;13.85;;;10.80;99.90;;;;;;6309020;22;39703;-77
2024/03/18 06:46:10;;;;;;;28.25;12.45;;;10.80;99.90;;;;;;6282631;22;37721;-77
2024/03/18 06:48:37;;;;;;;32.72;13.60;;;10.80;99.90;;;;;;6311151;22;37661;-78
2024/03/18 06:51:03;;;;;;;31.90;13.45;;;10.80;99.90;;;;;;6313025;22;38434;-78
2024/03/18 06:53:29;;;;;;;22.75;11.77;;;10.90;99.90;;;;;;6279696;22;39240;-78
2024/03/18 06:55:55;;;;;;;39.78;12.05;;;10.90;99.90;;;;;;6277403;22;38542;-78
2024/03/18 06:58:25;;;;;;;35.03;12.73;;;10.90;99.90;;;;;;6278713;22;36379;-80
2024/03/18 07:00:52;;;;;;;29.92;12.60;;;10.90;99.90;;;;;;6278930;22;39110;-79
2024/03/18 07:03:21;;;;;;;33.40;13.30;;;11.00;99.90;;;;;;6307130;22;38598;-78
2024/03/18 07:05:48;;;;;;;32.38;13.60;;;11.00;99.90;;;;;;6279709;22;37834;-79
2024/03/18 07:08:14;;;;;;;37.22;13.70;;;11.10;99.90;;;;;;6277076;22;36761;-78
2024/03/18 07:10:40;;;;;;;30.70;11.88;;;11.10;99.90;;;;;;6277571;22;37799;-78
2024/03/18 07:13:06;;;;;;;28.55;10.43;;;11.10;99.90;;;;;;6278096;22;37703;-78
2024/03/18 07:15:32;;;;;;;32.22;12.52;;;11.20;99.90;;;;;;6273846;22;38717;-77
2024/03/18 07:17:58;;;;;;;35.92;12.70;;;11.20;99.90;;;;;;6275352;22;37897;-77
2024/03/18 07:20:26;;;;;;;31.13;12.75;;;11.30;99.90;;;;;;6273708;22;37772;-77
2024/03/18 07:22:55;;;;;;;32.40;11.70;;;11.30;99.90;;;;;;6274482;22;39238;-77
2024/03/18 07:25:21;;;;;;;30.25;11.43;;;11.30;99.90;;;;;;6276546;22;40224;-77
2024/03/18 07:27:47;;;;;;;29.90;11.10;;;11.40;99.90;;;;;;6274688;22;38584;-77
2024/03/18 07:30:14;;;;;;;35.83;11.10;;;11.50;99.90;;;;;;6274491;22;40557;-77
2024/03/18 07:32:41;;;;;;;31.63;11.30;;;11.50;99.90;;;;;;6277664;22;38873;-77
2024/03/18 07:35:07;;;;;;;27.27;10.63;;;11.50;99.90;;;;;;6280347;22;37454;-79
2024/03/18 07:37:34;;;;;;;27.42;10.45;;;11.50;99.90;;;;;;6284668;22;39111;-78
2024/03/18 07:40:00;;;;;;;23.20;9.63;;;11.50;99.90;;;;;;6280924;22;37815;-79
2024/03/18 07:42:26;;;;;;;25.85;10.45;;;11.50;99.90;;;;;;6304593;22;40462;-78
2024/03/18 07:44:56;;;;;;;30.00;9.35;;;11.50;99.90;;;;;;6279231;22;37973;-78
2024/03/18 07:47:23;;;;;;;26.83;8.90;;;11.50;99.90;;;;;;6276481;22;39644;-78
2024/03/18 07:49:50;;;;;;;33.25;10.55;;;11.60;99.90;;;;;;6306753;22;39063;-78
2024/03/18 07:52:18;;;;;;;35.35;10.63;;;11.70;99.90;;;;;;6301499;22;38541;-78
2024/03/18 07:54:44;;;;;;;28.55;9.02;;;11.70;99.90;;;;;;6275838;22;39092;-77
2024/03/18 07:57:10;;;;;;;27.77;7.78;;;11.80;99.90;;;;;;6274943;22;37728;-77
2024/03/18 07:59:37;;;;;;;33.22;9.93;;;11.90;99.90;;;;;;6278079;22;39488;-77
2024/03/18 08:02:03;;;;;;;25.65;9.07;;;11.90;99.90;;;;;;6278157;22;37635;-77
2024/03/18 08:04:30;;;;;;;19.60;7.78;;;11.90;99.90;;;;;;6283487;22;39388;-78
2024/03/18 08:06:56;;;;;;;29.52;7.45;;;11.90;99.90;;;;;;6310819;22;37476;-78
2024/03/18 08:09:23;;;;;;;26.35;8.18;;;11.80;99.90;;;;;;6282769;22;39170;-78
2024/03/18 08:11:50;;;;;;;27.00;7.60;;;11.80;99.90;;;;;;6269820;22;37632;-78
2024/03/18 08:14:17;;;;;;;24.23;7.20;;;11.70;99.90;;;;;;6313065;22;39119;-78
2024/03/18 08:16:44;;;;;;;23.55;7.00;;;11.80;99.90;;;;;;6313759;22;37296;-78
2024/03/18 08:19:10;;;;;;;25.65;6.55;;;12.00;99.90;;;;;;6310836;22;38818;-77
2024/03/18 08:21:36;;;;;;;25.35;6.32;;;12.00;99.90;;;;;;6292120;22;38755;-80
2024/03/18 08:24:02;;;;;;;27.65;6.85;;;12.10;99.90;;;;;;6321740;22;39255;-80
2024/03/18 08:26:29;;;;;;;24.90;6.30;;;12.00;99.90;;;;;;6305170;22;36101;-79
2024/03/18 08:28:55;;;;;;;23.13;5.82;;;12.00;99.90;;;;;;6307274;22;37840;-79
2024/03/18 08:31:21;;;;;;;28.30;6.40;;;12.10;99.90;;;;;;6333366;22;38278;-79
2024/03/18 08:33:47;;;;;;;21.45;6.10;;;12.20;99.90;;;;;;6335455;22;40153;-79
2024/03/18 08:36:13;;;;;;;21.15;5.93;;;12.30;99.90;;;;;;6333613;22;38422;-81
2024/03/18 08:38:40;;;;;;;20.20;5.47;;;12.40;99.90;;;;;;6305771;22;37217;-79
2024/03/18 08:41:07;;;;;;;23.48;5.20;;;12.50;99.90;;;;;;6300993;22;37933;-81
2024/03/18 08:43:33;;;;;;;21.85;5.28;;;12.70;99.90;;;;;;6304904;22;38316;-79
2024/03/18 08:46:01;;;;;;;23.05;5.38;;;12.80;99.90;;;;;;6301642;22;37012;-80
2024/03/18 08:48:27;;;;;;;19.42;4.47;;;12.80;99.90;;;;;;6295625;22;47253;-79
2024/03/18 08:50:54;;;;;;;13.00;3.95;;;12.80;99.90;;;;;;6294001;22;38916;-78
2024/03/18 08:53:22;;;;;;;19.95;4.47;;;12.80;99.90;;;;;;6291311;22;39485;-78
2024/03/18 08:55:49;;;;;;;21.50;4.10;;;12.90;99.90;;;;;;6320153;22;38030;-78
2024/03/18 08:58:15;;;;;;;9.35;2.90;;;13.10;94.40;;;;;;6319625;22;38314;-80
2024/03/18 09:00:45;;;;;;;15.70;3.10;;;13.10;59.90;;;;;;6295146;22;39012;-79
2024/03/18 09:03:12;;;;;;;13.30;3.40;;;13.10;33.80;;;;;;6299532;22;37579;-80
2024/03/18 09:05:39;;;;;;;14.02;3.20;;;13.10;52.30;;;;;;6302065;22;38098;-79
2024/03/18 09:08:05;;;;;;;12.20;3.55;;;13.30;46.40;;;;;;6301374;22;37487;-78
2024/03/18 09:10:31;;;;;;;13.75;3.50;;;13.20;40.30;;;;;;6297230;22;40273;-79
2024/03/18 09:12:58;;;;;;;15.23;3.05;;;13.20;37.60;;;;;;6296059;22;37205;-80
2024/03/18 09:15:25;;;;;;;16.63;3.20;;;13.10;21.10;;;;;;6297018;22;37575;-79
2024/03/18 09:17:53;;;;;;;11.15;3.05;;;13.20;16.40;;;;;;6322770;22;39403;-79
2024/03/18 09:20:19;;;;;;;15.48;3.10;;;13.30;27.60;;;;;;6323254;22;39737;-79
2024/03/18 09:22:47;;;;;;;15.00;2.88;;;13.20;16.70;;;;;;6299447;22;39225;-79
2024/03/18 09:25:13;;;;;;;12.90;3.42;;;13.10;13.80;;;;;;6299739;22;36238;-79
2024/03/18 09:27:40;;;;;;;15.32;2.75;;;13.10;31.70;;;;;;6332166;22;39703;-79
2024/03/18 09:30:07;;;;;;;16.08;3.03;;;13.00;22.10;;;;;;6302583;22;38800;-79
2024/03/18 09:32:34;;;;;;;15.45;3.03;;;12.80;18.80;;;;;;6299398;22;37132;-79
2024/03/18 09:35:00;;;;;;;16.42;3.80;;;12.60;19.60;;;;;;6323017;22;38244;-79
2024/03/18 09:37:29;;;;;;;19.80;4.00;;;12.70;37.90;;;;;;6319312;22;38831;-79
2024/03/18 09:39:56;;;;;;;15.48;3.90;;;12.80;40.40;;;;;;6292123;22;38333;-79
2024/03/18 09:42:22;;;;;;;21.30;3.60;;;12.90;30.90;;;;;;6291570;22;37521;-79
2024/03/18 09:44:49;;;;;;;15.55;3.20;;;12.80;34.20;;;;;;6293763;22;36319;-78
2024/03/18 09:47:21;;;;;;;16.15;2.90;;;12.80;29.80;;;;;;6321127;22;40120;-78
2024/03/18 09:49:49;;;;;;;17.15;3.45;;;13.10;38.10;;;;;;6292394;22;38554;-78
2024/03/18 09:52:18;;;;;;;16.08;3.20;;;13.30;24.60;;;;;;6287259;22;38600;-79
2024/03/18 09:54:53;;;;;;;13.35;3.35;;;13.40;11.40;;;;;;6314548;22;37058;-79
2024/03/18 09:57:28;;;;;;;21.83;4.70;;;13.50;4.80;;;;;;6313858;22;41177;-78
2024/03/18 09:59:54;;;;;;;16.13;3.60;;;13.60;1.10;;;;;;6289638;22;40650;-78
2024/03/18 10:02:20;;;;;;;23.17;4.32;;;13.70;1.00;;;;;;6287263;22;39063;-79
2024/03/18 10:04:47;;;;;;;17.42;3.67;;;13.90;5.20;;;;;;6316027;22;37437;-78
2024/03/18 10:07:17;;;;;;;16.63;3.17;;;13.80;1.00;;;;;;6285500;22;38214;-79
2024/03/18 10:09:46;;;;;;;9.60;2.65;;;14.10;4.50;;;;;;6288714;22;40632;-79
2024/03/18 10:12:14;;;;;;;13.23;3.08;;;14.20;1.00;;;;;;6288064;22;37232;-79
2024/03/18 10:14:41;;;;;;;14.18;2.30;;;14.30;1.00;;;;;;6318233;22;37644;-79
2024/03/18 10:17:15;;;;;;;16.38;2.70;;;14.40;1.00;;;;;;6316536;22;39574;-79
2024/03/18 10:19:45;;;;;;;9.00;2.08;;;14.40;1.00;;;;;;6288625;22;39113;-79
2024/03/18 10:22:15;;;;;;;10.32;2.45;;;14.50;1.00;;;;;;6289248;22;39153;-80
2024/03/18 10:24:45;;;;;;;14.50;2.05;;;14.50;1.00;;;;;;6316415;22;37568;-79
2024/03/18 10:27:13;;;;;;;9.82;2.47;;;14.50;1.00;;;;;;6287584;22;39990;-79
2024/03/18 10:29:40;;;;;;;10.10;1.98;;;14.60;1.00;;;;;;6292278;22;38433;-79
2024/03/18 10:32:27;;;;;;;15.85;2.65;;;14.70;1.00;;;;;;6290316;22;38922;-79
2024/03/18 10:35:01;;;;;;;11.80;2.28;;;14.90;1.00;;;;;;6292439;22;36272;-79
2024/03/18 10:37:27;;;;;;;11.23;2.03;;;14.80;1.00;;;;;;6315977;22;38883;-79
2024/03/18 10:40:08;;;;;;;10.80;2.22;;;14.80;1.00;;;;;;6318978;22;38924;-78
2024/03/18 10:42:43;;;;;;;6.32;1.50;;;14.90;1.00;;;;;;6292943;22;47165;-79
2024/03/18 10:45:18;;;;;;;12.30;2.22;;;14.90;99.90;;;;;;6317620;22;37052;-79
2024/03/18 10:47:44;;;;;;;9.00;2.22;;;15.10;1.00;;;;;;6318056;22;40458;-79
2024/03/18 10:50:15;;;;;;;10.93;2.40;;;15.10;1.00;;;;;;6287589;22;38912;-79
2024/03/18 10:52:41;;;;;;;8.57;2.10;;;15.10;48.30;;;;;;6319388;22;38397;-80
2024/03/18 10:55:15;;;;;;;9.57;2.33;;;15.30;99.90;;;;;;6318314;22;37907;-79
2024/03/18 10:57:44;;;;;;;6.88;1.77;;;15.20;99.90;;;;;;6289872;22;38255;-79
2024/03/18 11:00:12;;;;;;;12.60;2.10;;;14.80;1.00;;;;;;6290286;22;39533;-80
2024/03/18 11:02:42;;;;;;;11.27;2.30;;;14.90;1.00;;;;;;6287440;22;39339;-80
2024/03/18 11:05:25;;;;;;;10.40;1.80;;;15.20;99.90;;;;;;6289573;22;36428;-79
2024/03/18 11:07:53;;;;;;;8.70;1.55;;;15.40;99.90;;;;;;6291145;22;38292;-80
2024/03/18 11:10:20;;;;;;;12.13;2.00;;;15.60;99.90;;;;;;6287902;22;39199;-79
2024/03/18 11:12:47;;;;;;;11.85;1.73;;;15.70;99.90;;;;;;6287879;22;37885;-80
2024/03/18 11:15:16;;;;;;;6.18;1.70;;;15.90;1.00;;;;;;6316308;22;37451;-80
2024/03/18 11:17:57;;;;;;;10.25;2.03;;;16.10;1.00;;;;;;6287143;22;38958;-80
2024/03/18 11:20:52;;;;;;;12.63;1.95;;;16.00;99.90;;;;;;6305010;22;39838;-80
2024/03/18 11:23:23;;;;;;;13.25;2.45;;;16.10;1.00;;;;;;6319021;22;38551;-80
2024/03/18 11:26:04;;;;;;;11.83;2.23;;;16.10;99.90;;;;;;6294995;22;37900;-81
2024/03/18 11:28:36;;;;;;;7.88;1.90;;;16.20;99.90;;;;;;6293384;22;47316;-80
2024/03/18 11:31:11;;;;;;;7.63;1.42;;;16.20;99.90;;;;;;6293596;22;38324;-80
2024/03/18 11:33:39;;;;;;;9.95;1.65;;;16.00;1.00;;;;;;6294880;22;38319;-80
2024/03/18 11:36:09;;;;;;;7.28;1.70;;;15.90;99.90;;;;;;6295467;22;37178;-80
2024/03/18 11:38:37;;;;;;;11.40;2.17;;;15.80;99.90;;;;;;6294753;22;38742;-81
2024/03/18 11:41:05;;;;;;;7.57;1.73;;;16.00;1.00;;;;;;6323637;22;38928;-80
2024/03/18 11:43:32;;;;;;;12.73;2.13;;;16.00;1.00;;;;;;6299684;22;38943;-80
2024/03/18 11:46:06;;;;;;;13.98;1.92;;;15.70;1.00;;;;;;6324460;22;39543;-80
2024/03/18 11:48:33;;;;;;;10.88;1.85;;;15.60;1.00;;;;;;6295436;22;47537;-81
2024/03/18 11:50:59;;;;;;;14.98;1.95;;;15.60;1.00;;;;;;6327187;22;38728;-81
2024/03/18 11:53:27;;;;;;;6.78;1.38;;;15.80;1.00;;;;;;6299738;22;38601;-80
2024/03/18 11:55:54;;;;;;;8.57;1.90;;;16.10;1.00;;;;;;6304744;22;36665;-81
2024/03/18 11:58:21;;;;;;;9.68;2.10;;;16.00;1.00;;;;;;6330311;22;39511;-80
2024/03/18 12:00:50;;;;;;;11.98;2.33;;;16.10;1.00;;;;;;6304196;22;37945;-80
2024/03/18 12:03:18;;;;;;;9.05;2.30;;;16.30;99.90;;;;;;6330166;22;40085;-80
2024/03/18 12:05:47;;;;;;;10.27;1.98;;;16.40;1.00;;;;;;6301858;22;37764;-80
2024/03/18 12:08:24;;;;;;;14.75;2.92;;;16.20;1.00;;;;;;6304252;22;38383;-80
2024/03/18 12:10:55;;;;;;;13.30;2.05;;;16.00;99.90;;;;;;6306002;22;38869;-80
2024/03/18 12:13:23;;;;;;;9.20;2.57;;;16.00;1.00;;;;;;6299567;22;38628;-79
2024/03/18 12:15:53;;;;;;;13.55;2.67;;;16.00;99.90;;;;;;6294387;22;37184;-80
2024/03/18 12:18:19;;;;;;;10.20;2.15;;;16.00;1.00;;;;;;6298421;22;39734;-80
2024/03/18 12:20:53;;;;;;;11.18;2.63;;;16.00;1.00;;;;;;6326996;22;40096;-80
2024/03/18 12:28:51;;;;;;;12.98;2.78;;;16.10;37.40;;;;;;6323911;22;39775;-80
2024/03/18 12:31:21;;;;;;;11.32;2.88;;;16.10;99.90;;;;;;6296218;22;37843;-80
2024/03/18 12:33:47;;;;;;;12.18;2.72;;;16.30;99.90;;;;;;6296153;22;39928;-79
2024/03/18 12:36:15;;;;;;;12.60;2.63;;;16.90;1.00;;;;;;6287735;22;37512;-78
2024/03/18 12:38:43;;;;;;;14.38;2.65;;;16.90;1.00;;;;;;6269324;22;38957;-79
2024/03/18 12:41:20;;;;;;;12.43;2.25;;;16.70;79.10;;;;;;6274127;22;39764;-79
2024/03/18 12:43:48;;;;;;;11.38;2.33;;;16.80;48.60;;;;;;6286152;22;37633;-79